createdAt,value
2022-10-10T00:49:37.912Z,10.90
2022-10-10T03:40:11.548Z,20.52
2022-10-10T03:42:39.523Z,23.70
2022-10-10T03:45:19.413Z,13.68
2022-10-10T04:03:06.342Z,16.33
2022-10-10T04:05:39.248Z,13.82
2022-10-10T04:08:07.324Z,10.77
2022-10-10T04:10:41.363Z,11.63
2022-10-10T04:13:16.646Z,11.02
2022-10-10T04:15:45.071Z,10.70
2022-10-10T04:27:02.538Z,9.25
2022-10-10T04:29:30.527Z,10.63
2022-10-10T04:31:58.019Z,10.05
2022-10-10T04:34:26.644Z,10.35
2022-10-10T04:41:34.454Z,9.52
2022-10-10T04:48:05.727Z,9.32
2022-10-10T04:50:33.649Z,12.20
2022-10-10T04:53:01.177Z,9.55
2022-10-10T04:55:28.985Z,9.82
2022-10-10T04:57:56.622Z,10.70
2022-10-10T05:00:27.264Z,18.52
2022-10-10T05:02:54.818Z,10.52
2022-10-10T05:36:47.104Z,14.10
2022-10-10T05:50:00.711Z,11.77
2022-10-10T06:01:44.712Z,10.43
2022-10-10T06:04:12.210Z,13.57
2022-10-10T06:12:03.447Z,9.43
2022-10-10T06:20:53.295Z,9.20
2022-10-10T06:23:26.689Z,10.68
2022-10-10T06:34:47.293Z,17.85
2022-10-10T06:37:14.408Z,19.42
2022-10-10T06:40:33.378Z,13.45
2022-10-10T06:43:00.794Z,11.32
2022-10-10T06:45:37.152Z,11.18
2022-10-10T06:48:31.297Z,10.85
2022-10-10T06:52:15.391Z,13.93
2022-10-10T06:54:46.085Z,11.55
2022-10-10T07:07:04.863Z,13.77
2022-10-10T07:09:32.390Z,8.80
2022-10-10T07:11:59.453Z,9.35
2022-10-10T07:14:27.617Z,8.85
2022-10-10T08:05:42.784Z,7.53
2022-10-10T08:21:05.836Z,8.07
2022-10-10T08:23:35.537Z,8.98
2022-10-10T08:26:07.545Z,10.27
2022-10-10T08:28:37.636Z,11.95
2022-10-10T08:31:11.813Z,9.10
2022-10-10T08:33:42.190Z,8.98
2022-10-10T08:36:21.101Z,8.00
2022-10-10T08:38:51.645Z,11.25
2022-10-10T08:41:43.135Z,10.82
2022-10-10T09:26:05.280Z,7.57
2022-10-10T09:39:47.041Z,8.55
2022-10-10T09:57:52.236Z,9.73
2022-10-10T10:05:30.392Z,5.10
2022-10-10T10:07:58.457Z,8.68
2022-10-10T10:10:38.310Z,7.93
2022-10-10T10:13:17.519Z,7.60
2022-10-10T10:21:19.481Z,5.85
2022-10-10T10:24:03.579Z,6.10
2022-10-10T10:32:13.823Z,6.32
2022-10-10T10:45:03.414Z,4.85
2022-10-10T10:48:06.395Z,4.25
2022-10-10T10:56:47.699Z,5.85
2022-10-10T11:01:24.259Z,6.55
2022-10-10T11:05:17.531Z,7.90
2022-10-10T11:07:20.370Z,4.95
2022-10-10T11:30:39.239Z,4.63
2022-10-10T11:44:40.225Z,4.68
2022-10-10T11:47:21.805Z,6.35
2022-10-10T11:55:20.375Z,6.00
2022-10-10T11:58:07.365Z,4.88
2022-10-10T12:01:20.942Z,3.97
2022-10-10T12:04:39.991Z,6.13
2022-10-10T12:12:47.543Z,5.88
2022-10-10T12:15:41.780Z,4.57
2022-10-10T12:28:28.223Z,5.38
2022-10-10T12:38:01.730Z,4.07
2022-10-10T12:40:30.491Z,3.97
2022-10-10T12:42:57.747Z,4.80
2022-10-10T12:45:31.735Z,4.50
2022-10-10T12:48:20.038Z,4.57
2022-10-10T12:56:47.299Z,5.50
2022-10-10T13:00:58.351Z,5.95
2022-10-10T13:08:50.377Z,4.63
2022-10-10T13:30:38.200Z,9.60
2022-10-10T13:33:18.965Z,32.22
2022-10-10T13:35:47.612Z,58.85
2022-10-10T13:38:23.028Z,38.00
2022-10-10T13:40:51.894Z,15.35
2022-10-10T13:43:41.053Z,10.68
2022-10-10T13:46:20.268Z,22.92
2022-10-10T13:48:48.486Z,8.13
2022-10-10T13:51:36.396Z,7.20
2022-10-10T13:54:48.885Z,13.00
2022-10-10T14:22:20.288Z,9.20
2022-10-10T14:24:48.773Z,10.88
2022-10-10T14:27:19.456Z,8.75
2022-10-10T14:29:47.621Z,8.82
2022-10-10T14:32:16.515Z,8.80
2022-10-10T14:34:43.872Z,7.93
2022-10-10T14:42:46.186Z,9.00
2022-10-10T14:59:07.310Z,8.65
2022-10-10T15:01:59.053Z,7.15
2022-10-10T15:04:29.237Z,7.93
2022-10-10T15:07:12.268Z,9.35
2022-10-10T15:09:48.224Z,6.60
2022-10-10T15:12:28.974Z,7.75
2022-10-10T15:20:06.585Z,8.00
2022-10-10T15:22:34.897Z,6.40
2022-10-10T15:25:02.851Z,6.30
2022-10-10T17:40:14.328Z,9.23
2022-10-10T18:01:39.897Z,8.15
2022-10-10T18:08:00.934Z,9.68
2022-10-10T18:10:30.361Z,9.25
2022-10-10T18:13:00.138Z,11.40
2022-10-10T18:15:28.013Z,9.13
2022-10-10T18:17:55.907Z,8.88
2022-10-10T18:20:23.238Z,8.93
2022-10-10T18:22:51.035Z,10.65
2022-10-10T18:25:24.272Z,11.13
2022-10-10T18:27:52.835Z,12.75
2022-10-10T18:30:22.636Z,10.70
2022-10-10T18:32:51.026Z,12.73
2022-10-10T18:35:20.025Z,14.25
2022-10-10T18:37:54.816Z,12.45
2022-10-10T18:40:23.946Z,13.52
2022-10-10T18:46:20.293Z,14.90
2022-10-10T18:48:52.924Z,14.17
2022-10-10T18:51:27.122Z,14.73
2022-10-10T18:54:03.517Z,12.98
2022-10-10T18:56:33.894Z,13.15
2022-10-10T18:59:05.579Z,12.88
2022-10-10T19:01:36.900Z,14.18
2022-10-10T19:04:08.725Z,18.27
2022-10-10T19:06:39.067Z,17.35
2022-10-10T19:09:10.825Z,15.80
2022-10-10T19:11:43.104Z,17.83
2022-10-10T19:14:15.213Z,18.58
2022-10-10T19:16:45.645Z,20.02
2022-10-10T19:19:16.659Z,23.85
2022-10-10T19:21:48.055Z,20.00
2022-10-10T19:24:19.505Z,19.70
2022-10-10T19:26:53.237Z,23.75
2022-10-10T19:29:22.031Z,22.80
2022-10-10T19:32:11.607Z,27.65
2022-10-10T19:35:52.092Z,25.83
2022-10-10T19:38:20.012Z,25.73
2022-10-10T19:40:49.775Z,24.17
2022-10-10T19:43:17.696Z,25.58
2022-10-10T19:45:51.877Z,25.48
2022-10-10T19:48:24.755Z,27.80
2022-10-10T19:50:54.029Z,28.67
2022-10-10T19:53:21.662Z,30.15
2022-10-10T19:56:03.384Z,27.23
2022-10-10T19:58:32.050Z,26.75
2022-10-10T20:00:59.431Z,26.27
2022-10-10T20:03:26.707Z,25.52
2022-10-10T20:06:00.644Z,26.58
2022-10-10T20:08:29.088Z,27.63
2022-10-10T20:10:57.674Z,29.55
2022-10-10T20:13:25.854Z,23.42
2022-10-10T20:15:53.439Z,23.85
2022-10-10T20:18:21.963Z,24.33
2022-10-10T20:20:53.028Z,22.88
2022-10-10T20:23:24.029Z,25.20
2022-10-10T20:25:52.590Z,26.17
2022-10-10T20:28:23.611Z,23.33
2022-10-10T20:36:52.680Z,20.67
2022-10-10T20:48:56.281Z,24.90
2022-10-10T20:51:25.191Z,24.17
2022-10-10T20:54:00.393Z,21.58
2022-10-10T20:56:29.985Z,24.75
2022-10-10T20:58:57.474Z,21.13
2022-10-10T21:01:27.745Z,25.55
2022-10-10T21:03:55.808Z,25.73
2022-10-10T21:06:28.381Z,26.67
2022-10-10T21:11:23.778Z,26.40
2022-10-10T21:13:56.452Z,25.58
2022-10-10T21:16:27.321Z,23.58
2022-10-10T21:18:58.511Z,19.88
2022-10-10T21:21:33.596Z,23.80
2022-10-10T21:24:06.956Z,26.77
2022-10-10T21:26:45.482Z,25.13
2022-10-10T21:29:22.667Z,21.08
2022-10-10T21:31:50.308Z,23.55
2022-10-10T21:34:24.051Z,21.80
2022-10-10T21:36:56.131Z,24.27
2022-10-10T21:39:27.284Z,22.83
2022-10-10T21:41:54.564Z,22.65
2022-10-10T21:44:21.696Z,21.25
2022-10-10T21:46:49.873Z,25.15
2022-10-10T21:49:19.962Z,25.35
2022-10-10T21:51:48.275Z,28.25
2022-10-10T21:54:16.418Z,25.92
2022-10-10T21:56:44.325Z,25.00
2022-10-10T21:59:18.298Z,23.48
2022-10-10T22:01:45.833Z,26.13
2022-10-10T22:04:13.174Z,25.92
2022-10-10T22:06:41.522Z,29.55
2022-10-10T22:09:09.643Z,30.63
2022-10-10T22:11:36.770Z,24.90
2022-10-10T22:14:05.750Z,27.08
2022-10-10T22:16:34.257Z,27.08
2022-10-10T22:19:03.671Z,25.25
2022-10-10T22:21:32.450Z,27.02
2022-10-10T22:24:04.930Z,27.90
2022-10-10T22:26:33.995Z,27.17
2022-10-10T22:29:03.444Z,23.90
2022-10-10T22:36:29.022Z,26.92
2022-10-10T22:38:56.414Z,24.50
2022-10-10T22:41:23.703Z,27.38
2022-10-10T22:43:51.335Z,27.00
2022-10-10T22:46:19.179Z,23.98
2022-10-10T22:48:46.329Z,23.92
2022-10-10T22:51:17.423Z,21.98
2022-10-10T22:53:46.754Z,24.85
2022-10-10T22:56:19.291Z,25.17
2022-10-10T22:58:49.190Z,23.27
2022-10-10T23:01:23.873Z,24.85
2022-10-10T23:04:00.387Z,24.60
2022-10-10T23:06:28.375Z,25.00
2022-10-10T23:08:56.042Z,22.58
2022-10-10T23:11:23.400Z,23.65
2022-10-10T23:13:51.103Z,24.20
2022-10-10T23:16:18.605Z,24.13
2022-10-10T23:18:46.047Z,26.17
2022-10-10T23:21:14.071Z,22.70
2022-10-10T23:23:42.081Z,21.95
2022-10-10T23:26:12.915Z,20.80
2022-10-10T23:28:40.511Z,22.65
2022-10-10T23:31:10.333Z,21.90
2022-10-10T23:33:39.027Z,20.65
2022-10-10T23:36:12.117Z,19.33
2022-10-10T23:39:00.707Z,21.92
2022-10-10T23:46:34.178Z,21.58
2022-10-10T23:49:41.503Z,24.15
2022-10-10T23:52:42.171Z,23.63
